createdAt,value
2023-05-05T00:02:41.345Z,95605.44
2023-05-05T00:05:47.029Z,95605.84
2023-05-05T00:08:48.768Z,95607.38
2023-05-05T00:11:51.097Z,95608.53
2023-05-05T00:14:52.849Z,95611.66
2023-05-05T00:17:55.291Z,95605.44
2023-05-05T00:20:58.606Z,95608.19
2023-05-05T00:24:01.861Z,95603.94
2023-05-05T00:27:03.841Z,95600.03
2023-05-05T00:30:07.130Z,95596.56
2023-05-05T00:33:12.096Z,95595.03
2023-05-05T00:36:16.071Z,95595.78
2023-05-05T00:39:20.831Z,95608.53
2023-05-05T00:42:26.234Z,95598.09
2023-05-05T00:45:29.325Z,95603.09
2023-05-05T00:48:32.100Z,95594.22
2023-05-05T00:51:35.726Z,95598.44
2023-05-05T00:54:38.900Z,95587.63
2023-05-05T00:57:43.464Z,95580.69
2023-05-05T01:00:46.146Z,95590.72
2023-05-05T01:03:48.155Z,95588.38
2023-05-05T01:06:59.430Z,95594.94
2023-05-05T01:10:19.657Z,95595.31
2023-05-05T01:13:32.363Z,95592.22
2023-05-05T01:16:36.234Z,95596.06
2023-05-05T01:19:58.556Z,95590.19
2023-05-05T01:23:05.999Z,95596.81
2023-05-05T01:26:27.277Z,95592.44
2023-05-05T01:30:03.450Z,95593.53
2023-05-05T01:33:14.324Z,95589.31
2023-05-05T01:36:23.456Z,95586.28
2023-05-05T01:39:30.396Z,95592.00
2023-05-05T01:42:33.899Z,95588.09
2023-05-05T01:45:39.397Z,95589.97
2023-05-05T01:48:44.150Z,95595.78
2023-05-05T01:51:47.120Z,95589.50
2023-05-05T01:54:52.798Z,95590.28
2023-05-05T01:57:57.626Z,95583.28
2023-05-05T02:01:01.046Z,95582.13
2023-05-05T02:04:06.819Z,95583.25
2023-05-05T02:07:10.192Z,95581.25
2023-05-05T02:10:14.966Z,95581.97
2023-05-05T02:13:20.220Z,95585.75
2023-05-05T02:16:24.696Z,95583.47
2023-05-05T02:19:31.968Z,95583.53
2023-05-05T02:22:35.379Z,95584.91
2023-05-05T02:25:40.121Z,95586.16
2023-05-05T02:28:48.188Z,95582.41
2023-05-05T02:31:53.655Z,95589.75
2023-05-05T02:34:59.360Z,95584.41
2023-05-05T02:38:03.995Z,95585.16
2023-05-05T02:41:13.694Z,95588.97
2023-05-05T02:44:17.152Z,95590.44
2023-05-05T02:47:20.465Z,95589.38
2023-05-05T02:50:24.042Z,95588.69
2023-05-05T02:53:27.048Z,95585.44
2023-05-05T02:56:39.482Z,95590.47
2023-05-05T02:59:50.437Z,95582.88
2023-05-05T03:03:07.674Z,95593.69
2023-05-05T03:06:16.560Z,95595.63
2023-05-05T03:09:25.992Z,95595.28
2023-05-05T03:12:30.632Z,95594.44
2023-05-05T03:15:40.996Z,95595.56
2023-05-05T03:18:45.292Z,95598.94
2023-05-05T03:21:49.064Z,95600.31
2023-05-05T03:24:51.024Z,95604.69
2023-05-05T03:27:53.020Z,95617.59
2023-05-05T03:30:55.286Z,95608.38
2023-05-05T03:33:57.360Z,95607.53
2023-05-05T03:37:01.601Z,95614.19
2023-05-05T03:40:03.899Z,95610.00
2023-05-05T03:43:08.034Z,95616.94
2023-05-05T03:46:09.855Z,95616.28
2023-05-05T03:49:11.715Z,95621.25
2023-05-05T03:52:15.206Z,95618.97
2023-05-05T03:55:17.307Z,95625.50
2023-05-05T03:58:21.999Z,95617.81
2023-05-05T04:01:24.074Z,95617.22
2023-05-05T04:04:26.216Z,95618.56
2023-05-05T04:07:31.724Z,95615.06
2023-05-05T04:10:33.913Z,95629.56
2023-05-05T04:13:35.725Z,95626.69
2023-05-05T04:16:37.628Z,95628.78
2023-05-05T04:19:40.088Z,95624.00
2023-05-05T04:22:43.619Z,95625.41
2023-05-05T04:25:45.627Z,95624.19
2023-05-05T04:28:48.824Z,95638.59
2023-05-05T04:31:53.095Z,95636.66
2023-05-05T04:34:56.498Z,95641.69
2023-05-05T04:38:00.001Z,95642.94
2023-05-05T04:41:05.157Z,95641.47
2023-05-05T04:44:07.275Z,95642.41
2023-05-05T04:47:09.363Z,95649.34
2023-05-05T04:50:11.627Z,95653.59
2023-05-05T04:53:14.897Z,95651.56
2023-05-05T04:56:16.897Z,95645.59
2023-05-05T04:59:18.729Z,95652.56
2023-05-05T05:02:20.989Z,95648.97
2023-05-05T05:05:25.365Z,95653.69
2023-05-05T05:08:29.857Z,95657.22
2023-05-05T05:11:32.776Z,95652.56
2023-05-05T05:14:37.194Z,95654.63
2023-05-05T05:17:39.470Z,95649.66
2023-05-05T05:20:41.282Z,95658.03
2023-05-05T05:23:44.486Z,95654.81
2023-05-05T05:26:46.267Z,95664.56
2023-05-05T05:29:48.164Z,95656.03
2023-05-05T05:32:50.261Z,95663.28
2023-05-05T05:35:52.067Z,95661.91
2023-05-05T05:38:55.980Z,95667.78
2023-05-05T05:41:58.090Z,95662.91
2023-05-05T05:45:00.205Z,95659.59
2023-05-05T05:48:02.054Z,95667.22
2023-05-05T05:51:04.202Z,95665.91
2023-05-05T05:54:07.559Z,95670.63
2023-05-05T05:57:12.279Z,95658.81
2023-05-05T06:00:17.443Z,95664.25
2023-05-05T06:03:21.412Z,95668.22
2023-05-05T06:06:24.321Z,95669.81
2023-05-05T06:09:29.812Z,95666.00
2023-05-05T06:12:31.571Z,95662.97
2023-05-05T06:15:37.253Z,95666.16
2023-05-05T06:18:39.974Z,95666.56
2023-05-05T06:21:41.798Z,95673.19
2023-05-05T06:24:45.200Z,95678.25
2023-05-05T06:27:47.130Z,95671.00
2023-05-05T06:30:48.949Z,95674.53
2023-05-05T06:33:51.241Z,95682.28
2023-05-05T06:36:53.659Z,95670.38
2023-05-05T06:39:57.915Z,95665.38
2023-05-05T06:42:59.926Z,95666.97
2023-05-05T06:46:01.729Z,95667.81
2023-05-05T06:49:03.480Z,95660.97
2023-05-05T06:52:05.666Z,95667.59
2023-05-05T06:55:10.029Z,95662.97
2023-05-05T06:58:12.026Z,95656.06
2023-05-05T07:01:13.818Z,95664.19
2023-05-05T07:04:17.898Z,95663.44
2023-05-05T07:07:19.745Z,95664.56
2023-05-05T07:10:24.311Z,95663.03
2023-05-05T07:13:26.100Z,95658.81
2023-05-05T07:16:28.115Z,95659.56
2023-05-05T07:19:32.650Z,95665.78
2023-05-05T07:22:34.601Z,95666.53
2023-05-05T07:25:38.612Z,95666.56
2023-05-05T07:28:40.347Z,95658.84
2023-05-05T07:31:42.303Z,95658.06
2023-05-05T07:34:44.100Z,95665.78
2023-05-05T07:37:45.969Z,95661.94
2023-05-05T07:40:49.069Z,95660.75
2023-05-05T07:43:50.861Z,95656.13
2023-05-05T07:46:52.846Z,95659.22
2023-05-05T07:49:54.841Z,95644.91
2023-05-05T07:53:06.213Z,95653.00
2023-05-05T07:56:19.273Z,95645.59
2023-05-05T07:59:21.637Z,95646.34
2023-05-05T08:02:24.199Z,95652.50
2023-05-05T08:05:25.945Z,95649.34
2023-05-05T08:08:27.733Z,95638.44
2023-05-05T08:11:30.864Z,95648.31
2023-05-05T08:14:34.746Z,95648.63
2023-05-05T08:17:50.142Z,95651.28
2023-05-05T08:20:54.166Z,95652.09
2023-05-05T08:23:58.704Z,95649.72
2023-05-05T08:27:02.116Z,95646.13
2023-05-05T08:30:05.065Z,95648.41
2023-05-05T08:33:09.225Z,95648.72
2023-05-05T08:36:11.291Z,95646.91
2023-05-05T08:39:13.588Z,95646.41
2023-05-05T08:42:32.906Z,95646.41
2023-05-05T08:45:40.620Z,95650.09
2023-05-05T08:48:43.697Z,95648.53
2023-05-05T08:51:46.837Z,95649.63
2023-05-05T08:54:54.790Z,95645.13
2023-05-05T08:58:01.652Z,95651.94
2023-05-05T09:01:03.802Z,95644.31
2023-05-05T09:04:05.813Z,95650.91
2023-05-05T09:07:08.441Z,95646.97
2023-05-05T09:10:11.889Z,95640.25
2023-05-05T09:13:16.420Z,95636.28
2023-05-05T09:16:18.459Z,95635.63
2023-05-05T09:19:20.302Z,95640.25
2023-05-05T09:22:33.405Z,95637.53
2023-05-05T09:25:35.175Z,95635.03
2023-05-05T09:28:38.836Z,95633.03
2023-05-05T09:31:40.591Z,95631.63
2023-05-05T09:34:43.694Z,95638.06
2023-05-05T09:37:45.872Z,95635.59
2023-05-05T09:40:49.013Z,95626.13
2023-05-05T09:43:52.598Z,95631.97
2023-05-05T09:46:54.757Z,95621.41
2023-05-05T09:49:57.560Z,95621.53
2023-05-05T09:53:01.263Z,95625.41
2023-05-05T09:56:03.413Z,95623.19
2023-05-05T09:59:12.170Z,95630.09
2023-05-05T10:02:14.702Z,95624.56
2023-05-05T10:05:18.304Z,95622.94
2023-05-05T10:08:21.996Z,95618.47
2023-05-05T10:11:25.400Z,95625.03
2023-05-05T10:14:31.964Z,95614.66
2023-05-05T10:18:02.758Z,95611.38
2023-05-05T10:21:09.947Z,95608.72
2023-05-05T10:24:16.950Z,95605.81
2023-05-05T10:27:22.223Z,95595.06
2023-05-05T10:30:29.550Z,95601.31
2023-05-05T10:33:47.972Z,95598.91
2023-05-05T10:36:51.190Z,95590.53
2023-05-05T10:39:54.905Z,95584.28
2023-05-05T10:42:58.232Z,95581.88
2023-05-05T10:46:01.960Z,95576.00
2023-05-05T10:49:13.356Z,95573.38
2023-05-05T10:52:27.401Z,95572.94
2023-05-05T10:55:39.802Z,95572.91
2023-05-05T10:58:58.216Z,95567.91
2023-05-05T11:02:18.404Z,95569.63
2023-05-05T11:05:21.242Z,95562.09
2023-05-05T11:08:29.399Z,95551.50
2023-05-05T11:12:01.594Z,95556.97
2023-05-05T11:15:37.269Z,95550.31
2023-05-05T11:18:41.308Z,95552.50
2023-05-05T11:22:00.584Z,95539.38
2023-05-05T11:25:43.480Z,95537.72
2023-05-05T11:28:59.526Z,95538.28
2023-05-05T11:32:11.424Z,95541.66
2023-05-05T11:35:14.872Z,95532.94
2023-05-05T11:38:19.662Z,95531.72
2023-05-05T11:41:44.980Z,95529.81
2023-05-05T11:44:47.287Z,95534.31
2023-05-05T11:47:49.161Z,95533.88
2023-05-05T11:50:53.542Z,95532.66
2023-05-05T11:53:59.148Z,95526.00
2023-05-05T11:57:02.350Z,95527.63
2023-05-05T12:00:06.705Z,95520.53
2023-05-05T12:03:09.424Z,95523.25
2023-05-05T12:06:13.418Z,95519.19
2023-05-05T12:09:15.805Z,95514.69
2023-05-05T12:12:17.893Z,95516.84
2023-05-05T12:15:28.608Z,95523.31
2023-05-05T12:18:31.642Z,95522.53
2023-05-05T12:21:35.426Z,95520.22
2023-05-05T12:24:38.124Z,95515.88
2023-05-05T12:27:40.163Z,95513.50
2023-05-05T12:30:42.218Z,95510.28
2023-05-05T12:33:47.956Z,95508.97
2023-05-05T12:36:53.780Z,95506.53
2023-05-05T12:39:55.566Z,95506.66
2023-05-05T12:42:57.259Z,95508.81
2023-05-05T12:46:03.847Z,95489.03
2023-05-05T12:49:07.130Z,95486.03
2023-05-05T12:52:12.922Z,95490.16
2023-05-05T12:55:14.714Z,95488.09
2023-05-05T12:58:19.320Z,95485.50
2023-05-05T13:01:23.299Z,95486.50
2023-05-05T13:04:28.728Z,95488.19
2023-05-05T13:07:32.601Z,95474.53
2023-05-05T13:10:36.878Z,95464.91
2023-05-05T13:13:38.672Z,95463.09
2023-05-05T13:16:43.036Z,95463.34
2023-05-05T13:19:44.789Z,95456.19
2023-05-05T13:22:48.101Z,95450.69
2023-05-05T13:25:50.075Z,95445.81
2023-05-05T13:28:54.221Z,95443.06
2023-05-05T13:31:57.719Z,95439.56
2023-05-05T13:34:59.852Z,95428.09
2023-05-05T13:38:03.502Z,95426.88
2023-05-05T13:41:07.819Z,95425.31
2023-05-05T13:44:11.248Z,95418.59
2023-05-05T13:47:13.450Z,95413.03
2023-05-05T13:50:15.478Z,95415.47
2023-05-05T13:53:18.562Z,95407.56
2023-05-05T13:56:23.169Z,95414.94
2023-05-05T13:59:25.549Z,95407.78
2023-05-05T14:02:28.298Z,95410.84
2023-05-05T14:05:30.579Z,95409.16
2023-05-05T14:08:33.799Z,95404.88
2023-05-05T14:11:36.555Z,95397.50
2023-05-05T14:14:38.334Z,95395.06
2023-05-05T14:17:40.107Z,95398.75
2023-05-05T14:20:42.392Z,95391.28
2023-05-05T14:23:50.522Z,95388.22
2023-05-05T14:26:53.481Z,95396.63
2023-05-05T14:29:55.781Z,95381.97
2023-05-05T14:32:58.264Z,95383.94
2023-05-05T14:36:00.063Z,95389.59
2023-05-05T14:39:04.693Z,95388.69
2023-05-05T14:42:06.526Z,95384.22
2023-05-05T14:45:09.425Z,95378.91
2023-05-05T14:48:11.581Z,95385.78
2023-05-05T14:51:15.151Z,95384.09
2023-05-05T14:54:27.777Z,95382.72
2023-05-05T14:57:30.971Z,95374.78
2023-05-05T15:03:36.397Z,95375.25
2023-05-05T15:06:40.784Z,95381.97
2023-05-05T15:09:45.309Z,95375.25
2023-05-05T15:12:48.115Z,95374.94
2023-05-05T15:15:49.979Z,95377.06
2023-05-05T15:18:52.198Z,95377.06
2023-05-05T15:21:53.962Z,95371.13
2023-05-05T15:25:00.895Z,95375.09
2023-05-05T15:28:05.182Z,95374.31
2023-05-05T15:31:07.296Z,95382.91
2023-05-05T15:34:09.493Z,95375.97
2023-05-05T15:37:13.835Z,95365.06
2023-05-05T15:40:17.457Z,95369.66
2023-05-05T15:43:21.452Z,95366.25
2023-05-05T15:46:25.799Z,95361.44
2023-05-05T15:49:28.737Z,95359.94
2023-05-05T15:52:30.975Z,95350.63
2023-05-05T15:55:34.095Z,95352.59
2023-05-05T15:58:35.736Z,95349.38
2023-05-05T16:01:40.886Z,95350.56
2023-05-05T16:04:44.075Z,95348.88
2023-05-05T16:07:46.156Z,95354.28
2023-05-05T16:10:50.164Z,95355.00
2023-05-05T16:13:52.197Z,95346.72
2023-05-05T16:16:54.147Z,95341.66
2023-05-05T16:19:57.041Z,95344.28
2023-05-05T16:22:59.177Z,95339.38
2023-05-05T16:26:02.311Z,95337.38
2023-05-05T16:29:04.509Z,95340.16
2023-05-05T16:32:06.521Z,95334.84
2023-05-05T16:35:08.946Z,95321.66
2023-05-05T16:38:10.815Z,95324.25
2023-05-05T16:41:14.724Z,95321.50
2023-05-05T16:44:16.702Z,95312.47
2023-05-05T16:47:18.408Z,95316.19
2023-05-05T16:50:20.345Z,95313.44
2023-05-05T16:53:23.069Z,95313.56
2023-05-05T16:56:35.526Z,95313.13
2023-05-05T16:59:37.907Z,95310.06
2023-05-05T17:02:42.459Z,95306.69
2023-05-05T17:05:44.772Z,95315.94
2023-05-05T17:08:48.849Z,95306.78
2023-05-05T17:11:52.339Z,95311.41
2023-05-05T17:14:54.315Z,95306.34
2023-05-05T17:17:56.097Z,95303.16
2023-05-05T17:21:00.508Z,95299.78
2023-05-05T17:24:02.225Z,95300.72
2023-05-05T17:27:08.975Z,95304.38
2023-05-05T17:30:11.472Z,95302.25
2023-05-05T17:33:13.256Z,95299.53
2023-05-05T17:36:15.256Z,95296.91
2023-05-05T17:39:18.353Z,95297.22
2023-05-05T17:42:24.033Z,95303.34
2023-05-05T17:45:25.839Z,95305.94
2023-05-05T17:48:30.391Z,95303.03
2023-05-05T17:51:32.215Z,95305.75
2023-05-05T17:54:34.646Z,95305.75
2023-05-05T17:57:39.837Z,95308.31
2023-05-05T18:00:41.894Z,95304.63
2023-05-05T18:03:44.436Z,95300.19
2023-05-05T18:06:49.159Z,95290.72
2023-05-05T18:09:51.794Z,95291.91
2023-05-05T18:12:59.177Z,95296.59
2023-05-05T18:16:04.080Z,95293.97
2023-05-05T18:19:09.449Z,95288.63
2023-05-05T18:22:11.956Z,95294.41
2023-05-05T18:25:15.724Z,95281.19
2023-05-05T18:28:22.112Z,95273.25
2023-05-05T18:31:24.361Z,95275.94
2023-05-05T18:34:27.331Z,95282.78
2023-05-05T18:37:33.218Z,95269.59
2023-05-05T18:40:40.963Z,95266.44
2023-05-05T18:43:53.340Z,95267.25
2023-05-05T18:46:59.251Z,95268.22
2023-05-05T18:50:01.985Z,95259.81
2023-05-05T18:53:07.351Z,95259.41
2023-05-05T18:56:11.029Z,95249.25
2023-05-05T18:59:18.274Z,95252.31
2023-05-05T19:02:20.683Z,95244.66
2023-05-05T19:05:23.999Z,95255.72
2023-05-05T19:08:31.508Z,95254.78
2023-05-05T19:11:35.987Z,95248.56
2023-05-05T19:14:42.417Z,95251.34
2023-05-05T19:17:45.633Z,95249.50
2023-05-05T19:20:49.164Z,95256.16
2023-05-05T19:23:53.698Z,95247.19
2023-05-05T19:26:57.520Z,95238.91
2023-05-05T19:30:01.481Z,95224.44
2023-05-05T19:33:04.655Z,95230.09
2023-05-05T19:36:08.584Z,95232.28
2023-05-05T19:39:15.739Z,95244.44
2023-05-05T19:42:22.383Z,95261.94
2023-05-05T19:45:35.080Z,95270.81
2023-05-05T19:48:38.298Z,95272.81
2023-05-05T19:51:45.381Z,95271.41
2023-05-05T19:54:51.405Z,95282.41
2023-05-05T19:57:57.287Z,95285.47
2023-05-05T20:01:05.134Z,95286.81
2023-05-05T20:04:10.204Z,95277.28
2023-05-05T20:07:12.638Z,95269.34
2023-05-05T20:10:16.845Z,95254.03
2023-05-05T20:13:19.961Z,95253.94
2023-05-05T20:16:24.763Z,95256.00
2023-05-05T20:19:30.189Z,95250.69
2023-05-05T20:22:32.567Z,95258.34
2023-05-05T20:25:35.316Z,95247.19
2023-05-05T20:28:41.802Z,95234.59
2023-05-05T20:31:47.193Z,95243.44
2023-05-05T20:34:52.310Z,95244.97
2023-05-05T20:37:56.003Z,95238.16
2023-05-05T20:40:58.446Z,95249.25
2023-05-05T20:44:00.338Z,95259.13
2023-05-05T20:47:09.690Z,95258.69
2023-05-05T20:50:12.337Z,95264.28
2023-05-05T20:53:16.681Z,95269.59
2023-05-05T20:56:18.508Z,95266.78
2023-05-05T20:59:20.452Z,95273.00
2023-05-05T21:02:23.852Z,95282.38
2023-05-05T21:05:28.161Z,95280.00
2023-05-05T21:08:30.095Z,95285.09
2023-05-05T21:11:31.848Z,95290.75
2023-05-05T21:14:33.507Z,95303.75
2023-05-05T21:17:45.033Z,95332.91
2023-05-05T21:20:48.145Z,95467.69
2023-05-05T21:23:49.984Z,95511.06
2023-05-05T21:26:59.531Z,95512.84
2023-05-05T21:30:05.212Z,95548.28
2023-05-05T21:33:08.507Z,95577.25
2023-05-05T21:36:10.284Z,95593.06
2023-05-05T21:39:12.666Z,95591.56
2023-05-05T21:42:16.428Z,95612.47
2023-05-05T21:45:20.386Z,95607.63
2023-05-05T21:48:26.621Z,95600.44
2023-05-05T21:51:28.366Z,95605.16
2023-05-05T21:54:31.476Z,95578.41
2023-05-05T21:57:33.467Z,95599.81
2023-05-05T22:00:35.673Z,95601.81
2023-05-05T22:03:40.731Z,95608.75
2023-05-05T22:06:44.105Z,95602.16
2023-05-05T22:09:45.806Z,95596.41
2023-05-05T22:12:47.680Z,95601.00
2023-05-05T22:15:52.964Z,95598.66
2023-05-05T22:18:57.682Z,95609.84
2023-05-05T22:21:59.380Z,95615.28
2023-05-05T22:25:03.371Z,95604.16
2023-05-05T22:28:05.060Z,95614.94
2023-05-05T22:31:06.934Z,95608.78
2023-05-05T22:34:10.437Z,95610.75
2023-05-05T22:37:12.258Z,95612.69
2023-05-05T22:40:14.349Z,95620.47
2023-05-05T22:43:18.233Z,95614.25
2023-05-05T22:46:20.339Z,95613.47
2023-05-05T22:49:23.422Z,95612.72
2023-05-05T22:52:25.683Z,95613.44
2023-05-05T22:55:28.706Z,95599.38
2023-05-05T22:58:30.739Z,95592.75
2023-05-05T23:01:34.993Z,95593.91
2023-05-05T23:04:38.126Z,95601.19
2023-05-05T23:07:40.540Z,95593.78
2023-05-05T23:10:42.281Z,95589.56
2023-05-05T23:13:45.558Z,95579.16
2023-05-05T23:16:47.838Z,95576.75
2023-05-05T23:19:50.937Z,95586.84
2023-05-05T23:22:52.832Z,95575.19
2023-05-05T23:25:57.056Z,95572.13
2023-05-05T23:28:59.093Z,95567.84
2023-05-05T23:32:00.871Z,95562.78
2023-05-05T23:35:06.046Z,95554.25
2023-05-05T23:38:09.559Z,95545.75
2023-05-05T23:41:11.512Z,95541.41
2023-05-05T23:44:13.359Z,95537.09
2023-05-05T23:47:17.610Z,95532.44
2023-05-05T23:50:21.134Z,95527.06
2023-05-05T23:53:23.204Z,95523.59
2023-05-05T23:56:25.287Z,95514.56
2023-05-05T23:59:27.846Z,95513.00
